Time;durP1;ratioP1;P1;durP2;ratioP2;P2;SDS_P1;SDS_P2;PMS_P1;PMS_P2;Temp;Humidity;BMP_temperature;BMP_pressure;BME280_temperature;BME280_humidity;BME280_pressure;Samples;Min_cycle;Max_cycle;Signal;HPM_P1;HPM_P2
2023/01/30 00:00:31;;;;;;;22.10;9.75;;;;;;;1.14;49.77;99154.13;4364082;32;20186;-85
2023/01/30 00:02:56;;;;;;;22.08;10.07;;;;;;;1.18;49.94;99144.59;4364108;32;20459;-85
2023/01/30 00:05:22;;;;;;;20.08;9.40;;;;;;;1.21;49.87;99151.47;4364782;32;20103;-85
2023/01/30 00:07:47;;;;;;;21.10;9.75;;;;;;;1.34;49.61;99147.87;4365125;32;20164;-85
2023/01/30 00:10:12;;;;;;;22.17;9.23;;;;;;;1.36;49.66;99140.91;4365161;32;20141;-85
2023/01/30 00:12:38;;;;;;;20.55;9.18;;;;;;;1.41;49.76;99141.72;4365104;32;20083;-85
2023/01/30 00:15:04;;;;;;;22.05;10.10;;;;;;;1.48;49.72;99140.75;4363989;32;20115;-85
2023/01/30 00:17:30;;;;;;;21.00;9.80;;;;;;;1.48;49.96;99143.34;4365371;32;20103;-85
2023/01/30 00:19:55;;;;;;;24.50;10.10;;;;;;;1.49;49.96;99137.31;4365337;32;20431;-85
2023/01/30 00:22:20;;;;;;;20.48;8.65;;;;;;;1.36;49.71;99133.97;4365292;32;20106;-85
2023/01/30 00:24:46;;;;;;;20.75;9.95;;;;;;;1.48;49.40;99142.50;4365213;32;20091;-85
2023/01/30 00:27:11;;;;;;;23.75;10.38;;;;;;;1.41;49.55;99139.13;4389022;32;20163;-84
2023/01/30 00:29:36;;;;;;;21.65;10.20;;;;;;;1.39;49.69;99140.84;4365217;32;20091;-84
2023/01/30 00:32:02;;;;;;;21.30;9.85;;;;;;;1.02;50.74;99137.81;4365215;32;20337;-84
2023/01/30 00:34:27;;;;;;;23.02;9.63;;;;;;;0.66;50.93;99143.34;4362667;32;20403;-84
2023/01/30 00:36:53;;;;;;;22.30;10.30;;;;;;;0.66;51.43;99132.13;4364843;32;20103;-84
2023/01/30 00:39:18;;;;;;;22.08;10.18;;;;;;;0.85;50.76;99132.81;4364788;32;20118;-84
2023/01/30 00:47:12;;;;;;;22.27;10.23;;;;;;;0.85;50.65;99131.09;4364005;32;20177;-85
2023/01/30 00:49:37;;;;;;;23.95;10.52;;;;;;;0.37;51.92;99130.66;4365015;32;20432;-85
2023/01/30 00:52:03;;;;;;;22.52;9.60;;;;;;;0.46;52.30;99130.53;4365127;32;20117;-85
2023/01/30 00:54:29;;;;;;;20.08;9.20;;;;;;;0.33;52.62;99126.38;4365067;32;20125;-85
2023/01/30 00:56:55;;;;;;;24.92;10.32;;;;;;;0.54;52.25;99128.78;4388533;32;20227;-85
2023/01/30 00:59:20;;;;;;;23.40;10.52;;;;;;;0.78;51.59;99122.50;4364794;32;20099;-85
2023/01/30 01:01:46;;;;;;;22.52;9.73;;;;;;;0.44;52.30;99114.16;4364823;32;20091;-85
2023/01/30 01:04:12;;;;;;;23.27;10.60;;;;;;;0.08;53.16;99116.19;4364537;32;20460;-85
2023/01/30 01:06:38;;;;;;;25.02;10.40;;;;;;;-0.04;53.59;99117.13;4364842;32;20154;-85
2023/01/30 01:09:04;;;;;;;26.58;10.38;;;;;;;-0.65;55.70;99125.19;4364723;32;20352;-85
2023/01/30 01:11:29;;;;;;;25.45;10.82;;;;;;;-0.32;54.76;99119.00;4364759;32;20156;-85
2023/01/30 01:13:57;;;;;;;23.80;10.25;;;;;;;0.07;53.65;99116.19;4364561;32;20131;-85
2023/01/30 01:16:23;;;;;;;23.55;10.45;;;;;;;0.41;52.66;99109.00;4363541;32;20134;-85
2023/01/30 01:18:48;;;;;;;20.90;9.40;;;;;;;0.27;53.27;99105.66;4363614;32;20095;-85
2023/01/30 01:21:14;;;;;;;25.98;10.88;;;;;;;0.19;53.27;99097.94;4364569;32;20141;-85
2023/01/30 01:23:39;;;;;;;25.83;11.15;;;;;;;0.37;53.04;99092.63;4364566;32;20133;-85
2023/01/30 01:26:05;;;;;;;24.75;11.02;;;;;;;-0.23;53.89;99105.16;4364590;32;20361;-85
2023/01/30 01:28:30;;;;;;;23.38;10.05;;;;;;;-0.56;54.79;99103.59;4364631;32;20108;-85
2023/01/30 01:30:56;;;;;;;29.52;12.20;;;;;;;0.30;53.21;99103.06;4364693;32;20095;-84
2023/01/30 01:33:26;;;;;;;22.90;10.63;;;;;;;-0.18;54.04;99097.34;4364739;32;20165;-85
2023/01/30 01:35:55;;;;;;;23.83;9.65;;;;;;;0.24;53.43;99093.59;4363574;32;20095;-84
2023/01/30 01:38:20;;;;;;;22.50;10.48;;;;;;;0.00;53.96;99089.47;4364899;32;20120;-84
2023/01/30 01:41:01;;;;;;;23.62;10.55;;;;;;;0.31;53.38;99084.03;4364819;32;20086;-84
2023/01/30 01:43:31;;;;;;;25.35;10.73;;;;;;;0.34;53.36;99079.69;4364779;32;20106;-85
2023/01/30 01:46:03;;;;;;;25.80;11.15;;;;;;;0.58;52.75;99073.44;4364364;32;20119;-85
2023/01/30 01:48:38;;;;;;;24.23;10.95;;;;;;;0.43;53.01;99076.16;4364568;32;20107;-85
2023/01/30 01:51:14;;;;;;;22.20;10.65;;;;;;;0.28;53.21;99069.38;4363378;32;20517;-85
2023/01/30 01:53:46;;;;;;;22.73;10.05;;;;;;;0.54;52.68;99061.38;4363192;32;20083;-85
2023/01/30 01:56:13;;;;;;;25.60;10.57;;;;;;;0.52;53.09;99054.47;4388375;32;20135;-85
2023/01/30 01:58:45;;;;;;;25.42;10.55;;;;;;;0.55;52.90;99054.44;4363274;32;20128;-85
2023/01/30 02:01:11;;;;;;;26.37;10.90;;;;;;;0.33;52.92;99054.66;4388333;32;20377;-85
2023/01/30 02:03:40;;;;;;;25.27;10.98;;;;;;;0.51;52.99;99045.00;4364340;32;20109;-85
2023/01/30 02:06:07;;;;;;;25.55;10.82;;;;;;;0.71;52.46;99042.19;4363030;32;20136;-85
2023/01/30 02:08:47;;;;;;;25.10;10.98;;;;;;;0.81;52.39;99035.16;4363212;32;20138;-85
2023/01/30 02:11:30;;;;;;;23.23;10.20;;;;;;;0.75;52.45;99025.72;4363141;32;20098;-85
2023/01/30 02:13:57;;;;;;;23.92;9.85;;;;;;;0.79;52.41;99019.59;4364353;32;20142;-84
2023/01/30 02:16:22;;;;;;;23.38;10.32;;;;;;;0.90;52.07;99025.53;4388058;32;20182;-85
2023/01/30 02:18:48;;;;;;;28.00;11.12;;;;;;;0.57;52.08;99019.00;4364282;32;20103;-84
2023/01/30 02:21:51;;;;;;;24.92;10.48;;;;;;;0.77;52.22;99014.47;4364255;32;20210;-84
2023/01/30 02:24:38;;;;;;;26.98;11.85;;;;;;;0.34;53.40;99014.03;4364444;32;20110;-84
2023/01/30 02:27:06;;;;;;;27.65;11.05;;;;;;;0.34;53.46;99014.91;4364222;32;20131;-85
2023/01/30 02:29:34;;;;;;;;;;;;;;;0.31;53.46;99014.06;4388070;32;20099;-84
2023/01/30 02:32:09;;;;;;;29.17;12.20;;;;;;;0.43;53.20;99008.78;4388061;32;19982;-84
2023/01/30 02:34:48;;;;;;;27.05;11.63;;;;;;;0.28;53.60;99009.78;4364064;32;20083;-84
2023/01/30 02:37:27;;;;;;;30.23;11.85;;;;;;;0.17;54.14;99009.91;4363983;32;20099;-85
2023/01/30 02:40:30;;;;;;;26.25;11.20;;;;;;;0.33;53.70;99000.25;4364042;32;20091;-84
2023/01/30 02:43:01;;;;;;;27.17;11.43;;;;;;;0.51;53.23;98998.34;4364080;32;20099;-84
2023/01/30 02:46:04;;;;;;;26.37;11.70;;;;;;;0.43;53.29;98982.88;4364100;32;20083;-85
2023/01/30 02:48:37;;;;;;;25.37;11.38;;;;;;;0.49;53.30;98977.59;4363835;32;20122;-84
2023/01/30 02:51:17;;;;;;;25.15;11.40;;;;;;;0.71;52.76;98979.94;4374987;32;20190;-84
2023/01/30 02:53:42;;;;;;;24.80;10.90;;;;;;;0.31;53.35;98972.59;4362800;32;20095;-85
2023/01/30 02:56:08;;;;;;;24.90;11.23;;;;;;;0.38;53.33;98966.50;4387504;32;20117;-84
2023/01/30 02:58:37;;;;;;;25.00;11.35;;;;;;;0.44;53.17;98962.97;4365141;32;20129;-85
2023/01/30 03:01:30;;;;;;;25.62;11.27;;;;;;;0.73;52.66;98957.47;4389309;32;20165;-84
2023/01/30 03:04:10;;;;;;;23.75;10.52;;;;;;;0.75;52.73;98954.00;4389358;32;20182;-85
2023/01/30 03:06:54;;;;;;;25.83;11.50;;;;;;;0.71;52.65;98946.25;4365620;32;20078;-85
2023/01/30 03:09:48;;;;;;;27.25;11.40;;;;;;;0.61;52.52;98949.84;4365514;32;20536;-85
2023/01/30 03:12:28;;;;;;;25.08;11.55;;;;;;;0.86;52.13;98945.22;4393189;32;20154;-84
2023/01/30 03:15:20;;;;;;;26.70;11.93;;;;;;;0.82;52.32;98948.72;4393262;32;20213;-84
2023/01/30 03:17:46;;;;;;;23.95;11.32;;;;;;;0.93;52.04;98950.28;4348270;33;20447;-84
2023/01/30 03:20:13;;;;;;;26.27;11.57;;;;;;;0.74;52.55;98949.66;4335909;33;20130;-84
2023/01/30 03:22:39;;;;;;;26.05;11.77;;;;;;;0.90;52.35;98945.12;4336028;33;20103;-84
2023/01/30 03:25:04;;;;;;;26.50;11.12;;;;;;;0.98;52.25;98939.84;4348312;33;20114;-84
2023/01/30 03:27:30;;;;;;;25.12;11.32;;;;;;;1.01;52.17;98944.16;4335971;33;20095;-85
2023/01/30 03:29:55;;;;;;;23.65;11.25;;;;;;;1.03;52.20;98942.41;4348228;33;20142;-84
2023/01/30 03:32:21;;;;;;;26.30;11.52;;;;;;;1.03;52.31;98945.00;4348614;33;20112;-84
2023/01/30 03:34:46;;;;;;;27.08;11.85;;;;;;;1.02;52.21;98938.91;4348059;33;20111;-84
2023/01/30 03:37:12;;;;;;;27.13;11.82;;;;;;;0.99;52.35;98938.97;4336092;33;20177;-84
2023/01/30 03:39:37;;;;;;;26.55;11.00;;;;;;;1.04;52.40;98926.78;4348526;33;20115;-84
2023/01/30 03:42:03;;;;;;;26.00;11.02;;;;;;;0.99;52.50;98931.19;4336097;33;20111;-84
2023/01/30 03:44:28;;;;;;;21.83;10.15;;;;;;;1.05;52.42;98925.06;4336139;33;20142;-84
2023/01/30 03:46:53;;;;;;;26.30;11.07;;;;;;;1.08;52.47;98922.41;4348243;33;20099;-84
2023/01/30 03:49:19;;;;;;;25.15;10.43;;;;;;;0.80;53.12;98927.97;4329786;33;20175;-85
2023/01/30 03:51:44;;;;;;;27.70;11.07;;;;;;;0.85;53.07;98926.19;4319033;33;20325;-84
2023/01/30 03:54:10;;;;;;;28.58;11.60;;;;;;;0.54;53.79;98929.19;4328530;32;20141;-84
2023/01/30 03:56:35;;;;;;;24.73;10.82;;;;;;;0.40;54.35;98931.06;4365417;32;20138;-85
2023/01/30 03:59:01;;;;;;;27.62;11.18;;;;;;;0.76;53.32;98921.97;4365426;32;20095;-84
2023/01/30 04:01:26;;;;;;;25.73;11.23;;;;;;;0.71;53.46;98928.09;4365445;32;20087;-84
2023/01/30 04:03:51;;;;;;;26.37;11.57;;;;;;;0.74;53.27;98915.94;4365396;32;20122;-84
2023/01/30 04:06:17;;;;;;;25.92;10.98;;;;;;;0.66;53.68;98914.34;4365267;32;20091;-84
2023/01/30 04:08:42;;;;;;;26.23;11.63;;;;;;;0.76;53.49;98915.94;4365231;32;20095;-84
2023/01/30 04:11:08;;;;;;;25.85;11.45;;;;;;;0.43;54.38;98914.62;4389200;32;20159;-84
2023/01/30 04:13:33;;;;;;;28.60;12.02;;;;;;;0.75;53.49;98911.63;4365342;32;20091;-84
2023/01/30 04:16:28;;;;;;;26.25;11.88;;;;;;;0.50;54.16;98905.88;4365195;32;20464;-85
2023/01/30 04:18:53;;;;;;;27.15;11.50;;;;;;;0.55;53.97;98902.34;4366735;32;20126;-85
2023/01/30 04:21:19;;;;;;;28.08;12.15;;;;;;;0.59;53.72;98903.19;4365010;32;20136;-85
2023/01/30 04:23:45;;;;;;;29.02;11.52;;;;;;;0.59;53.75;98903.19;4365023;32;20109;-85
2023/01/30 04:26:11;;;;;;;27.50;12.57;;;;;;;0.31;54.33;98911.28;4376198;32;20059;-85
2023/01/30 04:28:36;;;;;;;27.77;11.75;;;;;;;0.56;53.76;98900.62;4365051;32;20471;-84
2023/01/30 04:31:02;;;;;;;29.25;12.27;;;;;;;0.69;53.47;98890.97;4388817;32;20111;-84
2023/01/30 04:33:28;;;;;;;31.52;12.68;;;;;;;0.65;53.56;98892.72;4388818;32;20078;-84
2023/01/30 04:35:53;;;;;;;28.55;12.00;;;;;;;0.66;53.49;98888.44;4388664;32;20095;-84
2023/01/30 04:38:20;;;;;;;29.83;12.50;;;;;;;0.56;53.79;98891.13;4388789;32;20099;-84
2023/01/30 04:40:54;;;;;;;26.35;11.77;;;;;;;0.54;54.14;98884.22;4364920;32;20091;-84
2023/01/30 04:43:20;;;;;;;31.50;13.20;;;;;;;0.62;54.01;98881.53;4364941;32;20430;-84
2023/01/30 04:45:47;;;;;;;28.58;11.82;;;;;;;0.63;54.16;98873.75;4364864;32;20384;-84
2023/01/30 04:48:13;;;;;;;28.15;12.32;;;;;;;0.75;54.01;98865.81;4364984;32;20121;-84
2023/01/30 04:50:39;;;;;;;28.20;12.13;;;;;;;0.64;54.25;98866.81;4388617;32;20095;-84
2023/01/30 04:53:05;;;;;;;27.37;11.95;;;;;;;0.73;54.02;98861.50;4364767;32;20087;-84
2023/01/30 04:55:30;;;;;;;28.42;12.90;;;;;;;0.81;53.95;98864.00;4364709;32;20435;-84
2023/01/30 04:57:56;;;;;;;27.62;12.32;;;;;;;0.71;53.91;98866.72;4364711;32;20124;-84
2023/01/30 05:00:21;;;;;;;29.83;12.85;;;;;;;0.79;54.01;98864.03;4364793;32;20436;-84
2023/01/30 05:02:47;;;;;;;28.17;12.65;;;;;;;0.74;54.10;98858.91;4388834;32;20134;-84
2023/01/30 05:05:12;;;;;;;27.33;11.70;;;;;;;0.78;54.14;98857.13;4364707;32;20082;-84
2023/01/30 05:07:38;;;;;;;29.27;13.45;;;;;;;0.80;54.03;98857.97;4364973;32;20110;-83
2023/01/30 05:10:03;;;;;;;29.30;12.50;;;;;;;0.84;54.05;98854.44;4364924;32;20103;-84
2023/01/30 05:12:29;;;;;;;31.33;13.05;;;;;;;0.86;54.00;98846.66;4364977;32;20145;-84
2023/01/30 05:14:55;;;;;;;30.97;12.43;;;;;;;0.89;53.87;98850.06;4365003;32;20091;-84
2023/01/30 05:17:20;;;;;;;29.80;13.27;;;;;;;0.58;54.65;98853.09;4364852;32;20154;-84
2023/01/30 05:19:46;;;;;;;29.30;12.68;;;;;;;0.74;54.17;98852.88;4387676;32;20107;-84
2023/01/30 05:22:11;;;;;;;30.12;12.77;;;;;;;0.69;54.58;98863.28;4364595;32;20132;-84
2023/01/30 05:24:37;;;;;;;29.17;12.55;;;;;;;0.78;54.35;98854.53;4364502;32;20063;-85
2023/01/30 05:27:03;;;;;;;29.67;11.85;;;;;;;0.84;54.42;98851.00;4364355;32;20121;-85
2023/01/30 05:29:28;;;;;;;31.33;12.90;;;;;;;0.72;54.43;98854.62;4363770;32;20107;-83
2023/01/30 05:31:53;;;;;;;25.10;11.77;;;;;;;0.77;54.54;98856.28;4364814;32;20112;-84
2023/01/30 05:34:19;;;;;;;29.95;12.30;;;;;;;0.83;54.49;98855.34;4364845;32;20095;-84
2023/01/30 05:36:44;;;;;;;29.77;13.02;;;;;;;0.90;54.31;98848.31;4364712;32;20353;-84
2023/01/30 05:39:10;;;;;;;30.60;13.18;;;;;;;0.69;54.62;98852.91;4364831;32;20114;-84
2023/01/30 05:41:35;;;;;;;30.83;11.85;;;;;;;0.72;54.58;98845.13;4364765;32;20092;-84
2023/01/30 05:44:01;;;;;;;28.35;12.20;;;;;;;0.79;54.39;98845.88;4364581;32;20074;-84
2023/01/30 05:46:26;;;;;;;28.62;13.02;;;;;;;0.70;54.60;98830.47;4388500;32;20452;-84
2023/01/30 05:48:51;;;;;;;29.42;12.37;;;;;;;0.34;55.93;98833.50;4364700;32;20119;-84
2023/01/30 05:51:19;;;;;;;27.33;11.35;;;;;;;0.34;55.75;98835.25;4388463;32;20372;-84
2023/01/30 05:53:44;;;;;;;28.23;12.23;;;;;;;0.55;55.47;98842.75;4364679;32;20087;-84
2023/01/30 05:56:10;;;;;;;30.65;12.52;;;;;;;0.70;55.18;98835.66;4364419;32;20095;-84
2023/01/30 05:58:35;;;;;;;28.10;12.45;;;;;;;0.75;55.26;98845.09;4364628;32;20134;-84
2023/01/30 06:01:02;;;;;;;27.83;11.45;;;;;;;0.29;56.47;98847.38;4364544;32;20131;-84
2023/01/30 06:03:28;;;;;;;26.93;11.80;;;;;;;0.28;57.10;98843.94;4388407;32;20092;-84
2023/01/30 06:05:53;;;;;;;30.08;11.98;;;;;;;0.36;57.11;98844.69;4388343;32;20155;-84
2023/01/30 06:08:19;;;;;;;28.23;11.25;;;;;;;-0.09;58.46;98848.69;4364498;32;20109;-84
2023/01/30 06:10:44;;;;;;;26.08;10.70;;;;;;;-0.38;59.88;98843.81;4364617;32;20379;-82
2023/01/30 06:13:10;;;;;;;26.50;10.63;;;;;;;0.03;58.91;98842.53;4363080;32;20372;-83
2023/01/30 06:15:35;;;;;;;28.33;11.77;;;;;;;-0.11;59.65;98848.72;4364177;32;20147;-84
2023/01/30 06:18:01;;;;;;;29.77;12.48;;;;;;;-0.24;60.21;98847.97;4364343;32;20443;-82
2023/01/30 06:20:26;;;;;;;27.85;12.13;;;;;;;-1.06;63.15;98850.41;4364396;32;20420;-82
2023/01/30 06:22:52;;;;;;;26.23;11.63;;;;;;;-0.36;61.39;98849.84;4362913;32;20526;-82
2023/01/30 06:25:17;;;;;;;25.70;10.90;;;;;;;-0.56;61.96;98850.00;4364043;32;20092;-82
2023/01/30 06:27:44;;;;;;;26.62;11.90;;;;;;;-0.35;61.35;98844.63;4364008;32;20416;-82
2023/01/30 06:30:10;;;;;;;30.45;11.85;;;;;;;-0.02;60.31;98848.63;4389503;32;20117;-81
2023/01/30 06:32:36;;;;;;;27.92;11.68;;;;;;;-0.31;61.62;98850.63;4387048;32;20367;-82
2023/01/30 06:35:01;;;;;;;29.30;12.40;;;;;;;0.05;60.22;98849.41;4387072;32;20147;-82
2023/01/30 06:37:26;;;;;;;28.20;11.45;;;;;;;0.28;59.78;98843.94;4363222;32;20409;-82
2023/01/30 06:39:52;;;;;;;28.12;12.32;;;;;;;0.61;58.99;98838.38;4362945;32;20115;-82
2023/01/30 06:42:17;;;;;;;24.83;11.35;;;;;;;0.58;59.02;98832.34;4363055;32;20212;-82
2023/01/30 06:44:43;;;;;;;29.35;12.18;;;;;;;1.12;57.76;98818.59;4385963;32;20111;-79
2023/01/30 06:47:08;;;;;;;27.70;11.70;;;;;;;0.95;57.46;98820.59;4363069;32;20125;-81
2023/01/30 06:49:33;;;;;;;24.90;10.90;;;;;;;1.36;56.79;98822.50;4362834;32;20099;-82
2023/01/30 06:51:59;;;;;;;25.58;11.07;;;;;;;1.65;55.78;98815.94;4362974;32;20125;-82
2023/01/30 06:54:24;;;;;;;27.77;12.35;;;;;;;1.74;55.46;98821.00;4386814;32;20122;-81
2023/01/30 06:56:49;;;;;;;27.35;12.48;;;;;;;2.03;54.83;98819.59;4362824;32;20117;-82
2023/01/30 06:59:15;;;;;;;25.30;11.48;;;;;;;2.23;54.62;98816.56;4362963;32;20117;-81
2023/01/30 07:01:40;;;;;;;30.77;12.60;;;;;;;2.33;54.01;98812.03;4361829;32;20087;-80
2023/01/30 07:04:06;;;;;;;26.20;11.80;;;;;;;2.21;53.41;98815.75;4362606;32;20111;-80
2023/01/30 07:06:31;;;;;;;29.17;11.75;;;;;;;2.32;53.47;98808.59;4361739;32;20145;-81
2023/01/30 07:08:57;;;;;;;31.15;13.00;;;;;;;2.20;53.99;98811.44;4385773;32;20404;-82
2023/01/30 07:11:26;;;;;;;29.65;13.20;;;;;;;2.34;53.94;98806.81;4361041;32;20114;-82
2023/01/30 07:13:51;;;;;;;30.30;12.50;;;;;;;2.52;53.36;98807.31;4361920;32;20353;-81
2023/01/30 07:16:17;;;;;;;27.60;12.35;;;;;;;2.78;52.68;98805.88;4361943;32;20142;-79
2023/01/30 07:18:43;;;;;;;30.00;12.93;;;;;;;1.69;54.99;98811.56;4360539;32;20099;-82
2023/01/30 07:21:08;;;;;;;28.92;12.18;;;;;;;2.02;54.93;98809.22;4360630;32;20219;-80
2023/01/30 07:23:34;;;;;;;24.92;11.38;;;;;;;2.13;54.74;98815.06;4361519;32;20467;-82
2023/01/30 07:26:05;;;;;;;26.83;12.37;;;;;;;1.74;55.92;98813.19;4383975;32;20111;-81
2023/01/30 07:28:30;;;;;;;27.50;11.55;;;;;;;2.31;54.66;98808.62;4360628;32;20090;-82
2023/01/30 07:30:59;;;;;;;27.98;11.77;;;;;;;2.47;54.18;98799.63;4361279;32;20116;-81
2023/01/30 07:33:25;;;;;;;30.12;11.50;;;;;;;2.75;53.51;98796.41;4361678;32;20447;-82
2023/01/30 07:35:53;;;;;;;27.10;11.63;;;;;;;2.50;54.14;98801.28;4361304;32;20146;-82
2023/01/30 07:38:18;;;;;;;;;;;;;;;1.68;55.48;98810.72;4361970;32;20475;-81
2023/01/30 07:40:44;;;;;;;29.30;11.48;;;;;;;2.19;54.72;98814.09;4362008;32;20090;-82
2023/01/30 07:43:11;;;;;;;25.20;10.77;;;;;;;1.77;56.12;98813.13;4361098;32;20111;-73
2023/01/30 07:45:40;;;;;;;29.23;11.63;;;;;;;1.97;56.02;98804.13;4364423;32;20099;-79
2023/01/30 07:48:07;;;;;;;28.60;11.77;;;;;;;2.36;55.31;98797.25;4363215;32;20118;-86
2023/01/30 07:50:33;;;;;;;27.83;11.88;;;;;;;2.71;54.48;98787.81;4388249;32;20103;-82
2023/01/30 07:52:58;;;;;;;25.62;11.45;;;;;;;2.86;54.02;98781.41;4364351;32;20134;-82
2023/01/30 07:55:23;;;;;;;27.52;11.38;;;;;;;2.62;54.82;98789.75;4364257;32;20087;-82
2023/01/30 07:57:49;;;;;;;28.65;11.65;;;;;;;2.63;54.58;98788.87;4364368;32;20083;-83
2023/01/30 08:00:15;;;;;;;27.35;12.48;;;;;;;2.27;55.55;98799.19;4363066;32;20087;-83
2023/01/30 08:02:40;;;;;;;26.50;11.32;;;;;;;2.60;54.90;98794.13;4363080;32;20103;-84
2023/01/30 08:05:06;;;;;;;28.87;11.02;;;;;;;2.68;54.26;98800.03;4361795;32;77807;-83
2023/01/30 08:07:32;;;;;;;29.17;11.25;;;;;;;2.44;55.06;98791.03;4363781;32;20130;-81
2023/01/30 08:09:57;;;;;;;28.17;11.75;;;;;;;2.20;55.84;98782.84;4388950;32;20118;-81
2023/01/30 08:12:22;;;;;;;28.15;11.73;;;;;;;2.41;55.51;98781.53;4365031;32;20126;-81
2023/01/30 08:14:48;;;;;;;30.40;12.07;;;;;;;2.77;54.46;98778.16;4364947;32;20133;-81
2023/01/30 08:17:13;;;;;;;26.98;13.18;;;;;;;3.26;53.31;98756.97;4364920;32;20095;-81
2023/01/30 08:19:39;;;;;;;30.98;13.18;;;;;;;3.59;52.42;98732.72;4364983;32;20095;-81
2023/01/30 08:22:04;;;;;;;29.37;12.77;;;;;;;3.78;51.75;98722.63;4364909;32;20376;-80
2023/01/30 08:24:30;;;;;;;30.98;13.85;;;;;;;4.00;51.16;98720.25;4388755;32;20432;-81
2023/01/30 08:26:55;;;;;;;30.37;13.40;;;;;;;4.13;50.79;98708.56;4388663;32;20076;-80
2023/01/30 08:29:21;;;;;;;31.00;13.57;;;;;;;4.05;50.52;98710.56;4364741;32;20126;-80
2023/01/30 08:31:46;;;;;;;32.40;13.55;;;;;;;4.22;50.34;98721.34;4388784;32;20136;-80
2023/01/30 08:34:11;;;;;;;28.38;12.80;;;;;;;4.39;49.94;98725.22;4360854;32;20173;-81
2023/01/30 08:36:37;;;;;;;29.92;12.57;;;;;;;4.13;50.38;98721.63;4357875;32;20143;-80
2023/01/30 08:39:02;;;;;;;28.65;11.77;;;;;;;4.46;50.01;98706.72;4359563;32;20443;-80
2023/01/30 08:41:28;;;;;;;26.40;11.82;;;;;;;4.51;49.83;98714.38;4372082;32;20134;-79
2023/01/30 08:43:53;;;;;;;27.60;12.88;;;;;;;4.59;49.45;98712.37;4361905;32;20130;-80
2023/01/30 08:46:21;;;;;;;24.10;10.18;;;;;;;4.69;49.19;98711.22;4345931;32;20111;-79
2023/01/30 08:48:47;;;;;;;24.33;10.30;;;;;;;4.18;50.77;98716.28;4370999;32;20490;-80
2023/01/30 08:51:12;;;;;;;21.95;9.15;;;;;;;4.18;50.97;98708.47;4358639;32;20169;-82
2023/01/30 08:53:38;;;;;;;24.77;11.07;;;;;;;3.90;51.91;98710.12;4363502;32;20193;-81
2023/01/30 08:56:03;;;;;;;23.20;9.75;;;;;;;3.86;51.91;98710.25;4359087;32;20123;-81
2023/01/30 08:58:29;;;;;;;24.50;10.10;;;;;;;4.19;51.67;98704.94;4370659;32;20172;-81
2023/01/30 09:00:54;;;;;;;23.38;8.77;;;;;;;3.83;52.65;98708.59;4360170;32;20146;-81
2023/01/30 09:03:20;;;;;;;22.77;9.93;;;;;;;3.38;53.52;98716.78;4362459;32;20156;-81
2023/01/30 09:05:45;;;;;;;21.73;9.02;;;;;;;3.61;52.56;98704.87;4363712;32;20087;-81
2023/01/30 09:08:11;;;;;;;22.98;9.75;;;;;;;3.80;52.90;98707.81;4362614;32;20125;-81
2023/01/30 09:10:37;;;;;;;22.95;9.63;;;;;;;4.07;52.07;98701.78;4362661;32;20111;-81
2023/01/30 09:13:04;;;;;;;23.45;9.98;;;;;;;3.43;53.50;98704.47;4358807;32;20138;-80
2023/01/30 09:15:30;;;;;;;23.20;9.57;;;;;;;4.02;52.48;98701.09;4363209;32;21464;-81
2023/01/30 09:17:55;;;;;;;31.20;13.27;;;;;;;4.20;51.92;98685.81;4358484;32;20497;-81
2023/01/30 09:20:21;;;;;;;28.08;13.38;;;;;;;4.66;50.44;98692.19;4362042;32;20130;-79
2023/01/30 09:22:46;;;;;;;28.67;13.00;;;;;;;4.82;50.07;98698.59;4359074;32;20131;-80
2023/01/30 09:25:12;;;;;;;22.92;10.55;;;;;;;4.90;49.77;98685.31;4361974;32;20106;-81
2023/01/30 09:27:37;;;;;;;24.90;10.25;;;;;;;4.20;51.05;98686.66;4371278;32;20087;-81
2023/01/30 09:30:04;;;;;;;24.15;10.05;;;;;;;4.62;50.39;98681.00;4371073;32;20158;-82
2023/01/30 09:32:29;;;;;;;24.02;9.45;;;;;;;4.44;50.61;98687.66;4360136;32;20087;-82
2023/01/30 09:34:55;;;;;;;24.33;10.15;;;;;;;4.29;51.27;98685.53;4362783;32;20130;-82
2023/01/30 09:37:20;;;;;;;26.73;11.35;;;;;;;4.57;50.57;98675.06;4368012;32;20094;-82
2023/01/30 09:39:45;;;;;;;24.17;9.88;;;;;;;4.72;50.25;98661.50;4379099;32;20105;-82
2023/01/30 09:42:20;;;;;;;25.05;10.90;;;;;;;4.76;50.20;98669.25;4370052;32;20094;-82
2023/01/30 09:45:00;;;;;;;23.15;9.90;;;;;;;4.76;49.71;98664.03;4371181;32;20201;-81
2023/01/30 09:47:58;;;;;;;23.83;9.40;;;;;;;4.56;49.78;98657.72;4367662;32;20105;-82
2023/01/30 09:50:41;;;;;;;23.50;10.73;;;;;;;4.90;49.42;98654.81;4346590;32;20162;-82
2023/01/30 09:53:34;;;;;;;25.75;10.68;;;;;;;3.93;51.27;98638.81;4346763;32;20103;-81
2023/01/30 09:56:00;;;;;;;25.27;10.50;;;;;;;4.44;50.33;98638.09;4346300;32;20133;-80
2023/01/30 09:58:32;;;;;;;24.95;9.82;;;;;;;3.63;52.27;98646.63;4343286;32;20459;-82
2023/01/30 10:01:03;;;;;;;25.10;9.93;;;;;;;4.54;50.43;98630.81;4334852;32;20136;-83
2023/01/30 10:03:33;;;;;;;24.48;10.00;;;;;;;4.55;50.04;98621.25;4347888;32;20556;-83
2023/01/30 10:06:10;;;;;;;23.30;9.82;;;;;;;4.64;49.82;98616.56;4348779;32;20439;-82
2023/01/30 10:08:57;;;;;;;24.73;9.48;;;;;;;5.17;48.55;98605.19;4343192;32;20114;-83
2023/01/30 10:11:22;;;;;;;23.40;9.73;;;;;;;4.78;49.28;98603.06;4353442;32;20145;-83
2023/01/30 10:13:59;;;;;;;23.67;9.40;;;;;;;4.72;49.17;98596.28;4352138;32;20119;-83
2023/01/30 10:17:03;;;;;;;19.65;8.95;;;;;;;5.42;48.17;98589.47;4342603;32;20102;-82
2023/01/30 10:19:38;;;;;;;24.15;10.23;;;;;;;5.44;47.63;98589.41;4342177;32;20082;-82
2023/01/30 10:22:19;;;;;;;21.17;9.77;;;;;;;5.95;47.00;98585.78;4355009;32;20142;-82
2023/01/30 10:25:09;;;;;;;22.65;10.10;;;;;;;6.03;46.68;98569.78;4340297;33;20108;-82
2023/01/30 10:27:36;;;;;;;22.95;9.35;;;;;;;5.87;46.71;98577.31;4367127;32;20125;-84
2023/01/30 10:30:04;;;;;;;23.40;10.53;;;;;;;5.56;47.40;98570.66;4370861;32;20098;-83
2023/01/30 10:32:31;;;;;;;;;;;;;;;5.39;47.86;98555.63;4363226;32;21705;-83
2023/01/30 10:35:13;;;;;;;22.08;9.90;;;;;;;5.19;48.49;98555.50;4362415;32;19987;-83
2023/01/30 10:37:43;;;;;;;25.45;10.82;;;;;;;5.46;47.97;98543.19;4363051;32;20090;-83
2023/01/30 10:40:24;;;;;;;24.87;10.95;;;;;;;5.85;47.19;98529.47;4384834;32;20099;-84
2023/01/30 10:43:24;;;;;;;20.75;9.65;;;;;;;5.47;48.27;98537.91;4362154;32;20111;-82
2023/01/30 10:46:08;;;;;;;24.85;11.27;;;;;;;5.76;47.48;98525.50;4382937;32;20094;-83
2023/01/30 10:48:58;;;;;;;26.12;11.65;;;;;;;4.96;49.31;98531.06;4360917;32;20129;-83
2023/01/30 10:51:33;;;;;;;27.00;11.52;;;;;;;5.75;47.96;98515.94;4366266;32;20099;-82
2023/01/30 10:54:08;;;;;;;26.33;11.77;;;;;;;4.92;50.26;98509.47;4369003;32;20110;-77
2023/01/30 10:57:03;;;;;;;28.15;12.05;;;;;;;5.03;50.12;98496.00;4369685;32;20162;-80
2023/01/30 11:00:09;;;;;;;27.75;12.43;;;;;;;5.48;49.08;98476.06;4362830;32;20440;-80
2023/01/30 11:02:53;;;;;;;26.60;11.93;;;;;;;4.96;50.14;98475.41;4354128;32;20105;-80
2023/01/30 11:05:24;;;;;;;26.37;12.25;;;;;;;4.48;51.94;98475.38;4370103;32;20103;-81
2023/01/30 11:07:50;;;;;;;26.87;12.48;;;;;;;5.08;50.32;98460.16;4371337;32;20125;-80
2023/01/30 11:10:26;;;;;;;27.70;12.07;;;;;;;4.86;50.77;98454.03;4353041;32;20102;-82
2023/01/30 11:12:54;;;;;;;25.75;11.27;;;;;;;4.36;51.96;98451.47;4359620;32;20079;-80
2023/01/30 11:15:23;;;;;;;27.30;12.20;;;;;;;4.89;50.59;98454.75;4383107;32;20741;-81
2023/01/30 11:17:49;;;;;;;27.30;11.88;;;;;;;4.41;51.99;98450.41;4384955;32;20133;-82
2023/01/30 11:20:19;;;;;;;26.73;11.77;;;;;;;5.14;50.67;98446.03;4360495;32;20444;-81
2023/01/30 11:22:51;;;;;;;28.75;13.40;;;;;;;5.19;50.58;98438.84;4361338;32;20332;-82
2023/01/30 11:25:20;;;;;;;27.67;12.18;;;;;;;5.51;49.85;98439.37;4363242;32;20154;-82
2023/01/30 11:27:53;;;;;;;27.90;12.68;;;;;;;4.76;51.27;98430.03;4364744;32;20118;-81
2023/01/30 11:30:20;;;;;;;25.92;12.77;;;;;;;4.88;51.32;98421.72;4367518;32;20103;-80
2023/01/30 11:32:47;;;;;;;24.80;11.73;;;;;;;5.35;50.39;98419.97;4374214;32;20094;-81
2023/01/30 11:35:13;;;;;;;27.20;12.40;;;;;;;4.82;51.73;98410.69;4362716;32;20403;-80
2023/01/30 11:37:41;;;;;;;28.65;12.65;;;;;;;4.58;52.27;98410.69;4370206;32;20087;-81
2023/01/30 11:40:16;;;;;;;;;;;;;;;4.73;51.90;98399.69;4365025;32;20098;-80